MUC1158 LOWS-LOWI

Flight info

Callsign MUC1158
Flight time 1h 3m
Altitude 4500
Route VFR
Aircraft C182/L-VGD/A

Departure

Time 2026-05-07 10:14
Airport Salzburg Airport (LOWS)

Arrival

Time 2026-05-07 11:17
Airport Innsbruck Airport (LOWI)
Time Latitude Longitude Altitude Speed Heading
2026-05-07 09:59 47.79732 12.99766 1416 ft 0 kts 249°
2026-05-07 10:02 47.79732 12.99765 1416 ft 1 kts 249°
2026-05-07 10:02 47.79742 12.99720 1416 ft 8 kts 360°
2026-05-07 10:02 47.79776 12.99808 1416 ft 12 kts 78°
2026-05-07 10:03 47.79708 12.99891 1416 ft 16 kts 156°
2026-05-07 10:03 47.79591 12.99964 1417 ft 20 kts 159°
2026-05-07 10:03 47.79454 13.00052 1417 ft 24 kts 155°
2026-05-07 10:03 47.79291 13.00155 1417 ft 27 kts 158°
2026-05-07 10:04 47.79107 13.00269 1415 ft 30 kts 156°
2026-05-07 10:04 47.78906 13.00397 1418 ft 32 kts 156°
2026-05-07 10:04 47.78696 13.00532 1415 ft 33 kts 158°
2026-05-07 10:04 47.78520 13.00666 1416 ft 24 kts 96°
2026-05-07 10:05 47.78536 13.00740 1415 ft 0 kts 65°
2026-05-07 10:13 47.78548 13.00785 1414 ft 12 kts 68°
2026-05-07 10:13 47.78639 13.00831 1415 ft 22 kts 338°
2026-05-07 10:13 47.78959 13.00633 1415 ft 76 kts 337°
2026-05-07 10:14 47.79489 13.00283 1688 ft 84 kts 334°
2026-05-07 10:14 47.80022 12.99925 2065 ft 83 kts 333°
2026-05-07 10:14 47.80553 12.99608 2345 ft 83 kts 333°
2026-05-07 10:14 47.81187 12.99420 2395 ft 107 kts
2026-05-07 10:15 47.81973 12.99623 2405 ft 121 kts
2026-05-07 10:15 47.82796 13.00025 2402 ft 132 kts 31°
2026-05-07 10:15 47.83431 13.01042 2396 ft 140 kts 61°
2026-05-07 10:15 47.83814 13.02390 2405 ft 144 kts 64°
2026-05-07 10:16 47.84213 13.03783 2402 ft 148 kts 65°
2026-05-07 10:16 47.84585 13.05203 2394 ft 147 kts 78°
2026-05-07 10:16 47.84303 13.06641 2384 ft 149 kts 135°
2026-05-07 10:16 47.83437 13.07181 2528 ft 130 kts 184°
2026-05-07 10:17 47.82561 13.07225 2710 ft 123 kts 184°
2026-05-07 10:17 47.81705 13.07304 2884 ft 123 kts 183°
2026-05-07 10:17 47.80849 13.07349 3084 ft 126 kts 184°
2026-05-07 10:17 47.79955 13.07361 3266 ft 131 kts 185°
2026-05-07 10:18 47.79039 13.07381 3444 ft 131 kts 184°
2026-05-07 10:18 47.78198 13.07038 3607 ft 124 kts 208°
2026-05-07 10:18 47.77373 13.06723 3770 ft 122 kts 188°
2026-05-07 10:18 47.76541 13.06912 3939 ft 119 kts 175°
2026-05-07 10:19 47.75743 13.07179 4105 ft 116 kts 174°
2026-05-07 10:19 47.74957 13.07461 4282 ft 117 kts 173°
2026-05-07 10:19 47.74162 13.07756 4461 ft 118 kts 173°
2026-05-07 10:19 47.73329 13.08065 4501 ft 129 kts 173°
2026-05-07 10:20 47.72433 13.08403 4509 ft 136 kts 172°
2026-05-07 10:20 47.71504 13.08758 4508 ft 139 kts 172°
2026-05-07 10:20 47.70564 13.09116 4507 ft 140 kts 172°
2026-05-07 10:20 47.69618 13.09476 4508 ft 141 kts 172°
2026-05-07 10:21 47.68673 13.09852 4503 ft 141 kts 168°
2026-05-07 10:21 47.67808 13.10559 4493 ft 142 kts 152°
2026-05-07 10:21 47.66965 13.11301 4491 ft 140 kts 153°
2026-05-07 10:21 47.66143 13.12018 4603 ft 134 kts 150°
2026-05-07 10:22 47.65372 13.12671 4840 ft 123 kts 150°
2026-05-07 10:22 47.64649 13.13306 5071 ft 118 kts 149°
2026-05-07 10:22 47.63962 13.13913 5303 ft 113 kts 149°
2026-05-07 10:22 47.63298 13.14508 5537 ft 109 kts 149°
2026-05-07 10:23 47.62898 13.15374 5759 ft 105 kts 84°
2026-05-07 10:23 47.63316 13.16066 5995 ft 91 kts 359°
2026-05-07 10:23 47.63715 13.15535 6247 ft 85 kts 271°
2026-05-07 10:23 47.63676 13.14698 6491 ft 79 kts 276°
2026-05-07 10:24 47.63700 13.13897 6721 ft 76 kts 274°
2026-05-07 10:24 47.63728 13.13114 6954 ft 81 kts 274°
2026-05-07 10:24 47.63774 13.12183 7188 ft 96 kts 274°
2026-05-07 10:24 47.63834 13.11162 7479 ft 103 kts 274°
2026-05-07 10:25 47.63910 13.10003 7508 ft 121 kts 274°
2026-05-07 10:25 47.63995 13.08715 7510 ft 129 kts 275°
2026-05-07 10:25 47.64083 13.07367 7508 ft 132 kts 275°
2026-05-07 10:25 47.64171 13.05999 7507 ft 134 kts 274°
2026-05-07 10:26 47.64265 13.04622 7503 ft 133 kts 274°
2026-05-07 10:26 47.64164 13.03283 7506 ft 130 kts 259°
2026-05-07 10:26 47.63995 13.01974 7506 ft 129 kts 259°
2026-05-07 10:26 47.63825 13.00662 7507 ft 130 kts 259°
2026-05-07 10:27 47.63655 12.99339 7499 ft 130 kts 259°
2026-05-07 10:27 47.63486 12.98024 7506 ft 130 kts 259°
2026-05-07 10:27 47.63322 12.96697 7502 ft 131 kts 259°
2026-05-07 10:27 47.63152 12.95375 7495 ft 129 kts 259°
2026-05-07 10:28 47.62983 12.94069 7503 ft 130 kts 259°
2026-05-07 10:28 47.62822 12.92747 7497 ft 130 kts 259°
2026-05-07 10:28 47.62658 12.91446 7502 ft 130 kts 259°
2026-05-07 10:28 47.62527 12.90116 7497 ft 130 kts 264°
2026-05-07 10:29 47.62447 12.88793 7495 ft 127 kts 264°
2026-05-07 10:29 47.62366 12.87478 7500 ft 129 kts 264°
2026-05-07 10:29 47.62284 12.86162 7493 ft 126 kts 264°
2026-05-07 10:30 47.62124 12.83697 7497 ft 119 kts 264°
2026-05-07 10:30 47.62043 12.82459 7499 ft 124 kts 264°
2026-05-07 10:30 47.61961 12.81169 7501 ft 127 kts 264°
2026-05-07 10:30 47.61881 12.79859 7503 ft 128 kts 264°
2026-05-07 10:31 47.61773 12.78543 7500 ft 130 kts 257°
2026-05-07 10:31 47.61534 12.77259 7505 ft 130 kts 254°
2026-05-07 10:31 47.61286 12.75986 7528 ft 127 kts 253°
2026-05-07 10:31 47.61039 12.74715 7532 ft 130 kts 255°
2026-05-07 10:32 47.60783 12.73426 7531 ft 131 kts 254°
2026-05-07 10:32 47.60527 12.72139 7532 ft 130 kts 254°
2026-05-07 10:32 47.60273 12.70851 7530 ft 131 kts 254°
2026-05-07 10:32 47.60015 12.69548 7529 ft 133 kts 254°
2026-05-07 10:33 47.59754 12.68243 7524 ft 131 kts 252°
2026-05-07 10:33 47.59440 12.67010 7527 ft 129 kts 249°
2026-05-07 10:33 47.59102 12.65740 7421 ft 137 kts 249°
2026-05-07 10:33 47.58743 12.64406 7308 ft 142 kts 249°
2026-05-07 10:34 47.58448 12.63012 7186 ft 142 kts 264°
2026-05-07 10:34 47.58426 12.61548 7062 ft 142 kts 270°
2026-05-07 10:34 47.58494 12.60093 6940 ft 141 kts 274°
2026-05-07 10:34 47.58579 12.58649 6818 ft 141 kts 274°
2026-05-07 10:35 47.58667 12.57211 6696 ft 140 kts 274°
2026-05-07 10:35 47.58749 12.55767 6570 ft 141 kts 274°
2026-05-07 10:35 47.58832 12.54304 6398 ft 143 kts 275°
2026-05-07 10:35 47.58801 12.52839 6220 ft 143 kts 264°
2026-05-07 10:36 47.58698 12.51366 6038 ft 143 kts 264°
2026-05-07 10:36 47.58487 12.49957 5855 ft 141 kts 246°
2026-05-07 10:36 47.57956 12.48749 5672 ft 137 kts 235°
2026-05-07 10:36 47.57371 12.47673 5460 ft 134 kts 234°
2026-05-07 10:37 47.56815 12.46628 5205 ft 128 kts 234°
2026-05-07 10:37 47.56247 12.45619 4937 ft 128 kts 223°
2026-05-07 10:37 47.55503 12.44928 4679 ft 126 kts 214°
2026-05-07 10:37 47.54716 12.44406 4401 ft 126 kts 187°
2026-05-07 10:38 47.53927 12.44925 4101 ft 129 kts 134°
2026-05-07 10:38 47.53339 12.45867 3996 ft 117 kts 128°
2026-05-07 10:38 47.52898 12.46802 3985 ft 107 kts 124°
2026-05-07 10:38 47.52485 12.47669 3986 ft 100 kts 130°
2026-05-07 10:39 47.52035 12.48400 3984 ft 92 kts 128°
2026-05-07 10:39 47.51643 12.49110 3983 ft 87 kts 129°
2026-05-07 10:39 47.51236 12.49847 4013 ft 101 kts 129°
2026-05-07 10:39 47.50749 12.50723 4017 ft 119 kts 129°
2026-05-07 10:40 47.50214 12.51698 4139 ft 119 kts 129°
2026-05-07 10:40 47.49770 12.52166 4189 ft 121 kts 166°
2026-05-07 10:40 47.49079 12.51696 4037 ft 119 kts 250°
2026-05-07 10:40 47.49149 12.50499 3797 ft 119 kts 290°
2026-05-07 10:41 47.49482 12.49381 3538 ft 119 kts 299°
2026-05-07 10:41 47.49927 12.48358 3238 ft 118 kts 308°
2026-05-07 10:41 47.50452 12.47472 2962 ft 108 kts 314°
2026-05-07 10:41 47.50941 12.46713 2746 ft 97 kts 313°
2026-05-07 10:42 47.51374 12.46009 2499 ft 90 kts 311°
2026-05-07 10:42 47.51793 12.45324 2228 ft 88 kts 311°
2026-05-07 10:42 47.52134 12.44766 2199 ft 54 kts 312°
2026-05-07 10:42 47.52232 12.44559 2190 ft 11 kts 176°
2026-05-07 10:43 47.52201 12.44593 2192 ft 4 kts 133°
2026-05-07 10:43 47.52183 12.44655 2193 ft 12 kts 110°
2026-05-07 10:43 47.52107 12.44811 2202 ft 23 kts 131°
2026-05-07 10:43 47.52020 12.44956 2206 ft 12 kts 131°
2026-05-07 10:44 47.51960 12.44939 2207 ft 10 kts 207°
2026-05-07 10:44 47.51923 12.44953 2208 ft 5 kts 112°
2026-05-07 10:44 47.51915 12.44987 2209 ft 1 kts 140°
2026-05-07 10:44 47.51912 12.44986 2209 ft 0 kts 218°
2026-05-07 10:51 47.51906 12.44984 2209 ft 4 kts 176°
2026-05-07 10:52 47.51852 12.45063 2208 ft 17 kts 124°
2026-05-07 10:52 47.51788 12.45229 2211 ft 18 kts 113°
2026-05-07 10:52 47.51835 12.45261 2213 ft 0 kts 309°
2026-05-07 10:53 47.51937 12.45091 2209 ft 52 kts 312°
2026-05-07 10:53 47.52286 12.44515 2280 ft 91 kts 310°
2026-05-07 10:53 47.52721 12.43746 2520 ft 103 kts 309°
2026-05-07 10:53 47.53142 12.42843 2788 ft 104 kts 295°
2026-05-07 10:54 47.53392 12.41876 3034 ft 98 kts 283°
2026-05-07 10:54 47.53260 12.40934 3262 ft 92 kts 254°
2026-05-07 10:54 47.53064 12.40080 3486 ft 83 kts 253°
2026-05-07 10:54 47.52863 12.39271 3672 ft 86 kts 254°
2026-05-07 10:55 47.52655 12.38415 3859 ft 93 kts 254°
2026-05-07 10:55 47.52494 12.37465 4061 ft 97 kts 264°
2026-05-07 10:55 47.52405 12.36450 4258 ft 101 kts 264°
2026-05-07 10:55 47.52327 12.35399 4460 ft 104 kts 264°
2026-05-07 10:56 47.52256 12.34266 4511 ft 118 kts 264°
2026-05-07 10:56 47.52180 12.32999 4507 ft 128 kts 264°
2026-05-07 10:56 47.52099 12.31657 4506 ft 133 kts 264°
2026-05-07 10:56 47.52017 12.30287 4505 ft 135 kts 264°
2026-05-07 10:57 47.51931 12.28905 4508 ft 135 kts 264°
2026-05-07 10:57 47.51967 12.27521 4507 ft 135 kts 274°
2026-05-07 10:57 47.52098 12.26150 4506 ft 135 kts 279°
2026-05-07 10:57 47.52256 12.24781 4505 ft 135 kts 277°
2026-05-07 10:58 47.52062 12.23450 4496 ft 134 kts 248°
2026-05-07 10:58 47.51731 12.22160 4498 ft 135 kts 249°
2026-05-07 10:58 47.51403 12.20858 4501 ft 135 kts 249°
2026-05-07 10:58 47.51075 12.19554 4500 ft 135 kts 249°
2026-05-07 10:59 47.50753 12.18274 4500 ft 135 kts 249°
2026-05-07 10:59 47.50424 12.16972 4502 ft 136 kts 249°
2026-05-07 10:59 47.50147 12.15644 4501 ft 135 kts 254°
2026-05-07 10:59 47.49897 12.14307 4503 ft 135 kts 254°
2026-05-07 11:00 47.49649 12.12971 4500 ft 134 kts 254°
2026-05-07 11:00 47.49402 12.11642 4501 ft 134 kts 254°
2026-05-07 11:00 47.49154 12.10305 4505 ft 136 kts 254°
2026-05-07 11:00 47.48904 12.08959 4499 ft 136 kts 254°
2026-05-07 11:01 47.48653 12.07614 4501 ft 136 kts 254°
2026-05-07 11:01 47.48401 12.06267 4501 ft 136 kts 254°
2026-05-07 11:01 47.48148 12.04918 4501 ft 136 kts 254°
2026-05-07 11:01 47.47897 12.03574 4500 ft 135 kts 254°
2026-05-07 11:02 47.47646 12.02230 4501 ft 135 kts 254°
2026-05-07 11:02 47.47397 12.00886 4500 ft 136 kts 254°
2026-05-07 11:02 47.47146 11.99544 4499 ft 136 kts 254°
2026-05-07 11:02 47.46850 11.98226 4500 ft 135 kts 245°
2026-05-07 11:03 47.46444 11.96973 4499 ft 135 kts 244°
2026-05-07 11:03 47.46035 11.95716 4499 ft 136 kts 244°
2026-05-07 11:03 47.45626 11.94458 4499 ft 136 kts 244°
2026-05-07 11:03 47.45187 11.93250 4497 ft 135 kts 235°
2026-05-07 11:04 47.44637 11.92121 4497 ft 135 kts 234°
2026-05-07 11:04 47.44074 11.90967 4385 ft 142 kts 234°
2026-05-07 11:04 47.43491 11.89777 4255 ft 144 kts 234°
2026-05-07 11:04 47.42965 11.88516 4123 ft 145 kts 244°
2026-05-07 11:05 47.42525 11.87170 3994 ft 146 kts 244°
2026-05-07 11:05 47.42082 11.85820 3870 ft 146 kts 244°
2026-05-07 11:05 47.41637 11.84467 3741 ft 147 kts 244°
2026-05-07 11:05 47.41189 11.83108 3615 ft 147 kts 244°
2026-05-07 11:06 47.40701 11.81769 3500 ft 148 kts 241°
2026-05-07 11:06 47.40212 11.80469 3520 ft 143 kts 242°
2026-05-07 11:06 47.39716 11.79196 3496 ft 142 kts 241°
2026-05-07 11:06 47.39265 11.77918 3501 ft 140 kts 245°
2026-05-07 11:07 47.38810 11.76629 3496 ft 143 kts 244°
2026-05-07 11:07 47.38356 11.75340 3492 ft 140 kts 244°
2026-05-07 11:07 47.37917 11.74068 3490 ft 138 kts 244°
2026-05-07 11:07 47.37429 11.72843 3489 ft 139 kts 239°
2026-05-07 11:08 47.36890 11.71670 3488 ft 138 kts 234°
2026-05-07 11:08 47.36271 11.70575 3479 ft 137 kts 227°
2026-05-07 11:08 47.35592 11.69611 3489 ft 136 kts 223°
2026-05-07 11:08 47.34846 11.68739 3485 ft 137 kts 214°
2026-05-07 11:09 47.34018 11.68059 3486 ft 137 kts 204°
2026-05-07 11:09 47.33150 11.67475 3486 ft 137 kts 204°
2026-05-07 11:09 47.32283 11.66893 3485 ft 137 kts 204°
2026-05-07 11:09 47.31415 11.66312 3484 ft 137 kts 204°
2026-05-07 11:10 47.30559 11.65742 3484 ft 136 kts 204°
2026-05-07 11:10 47.29765 11.65018 3477 ft 134 kts 223°
2026-05-07 11:10 47.29261 11.63907 3474 ft 132 kts 256°
2026-05-07 11:10 47.29077 11.62575 3473 ft 133 kts 257°
2026-05-07 11:11 47.28850 11.61250 3473 ft 134 kts 254°
2026-05-07 11:11 47.28549 11.59962 3486 ft 132 kts 249°
2026-05-07 11:11 47.28209 11.58696 3498 ft 133 kts 247°
2026-05-07 11:11 47.27849 11.57428 3497 ft 134 kts 247°
2026-05-07 11:12 47.27483 11.56164 3498 ft 134 kts 245°
2026-05-07 11:12 47.27081 11.54925 3496 ft 134 kts 244°
2026-05-07 11:12 47.26712 11.53664 3496 ft 134 kts 248°
2026-05-07 11:12 47.26380 11.52378 3495 ft 134 kts 249°
2026-05-07 11:13 47.26049 11.51086 3496 ft 136 kts 249°
2026-05-07 11:13 47.25716 11.49787 3497 ft 136 kts 249°
2026-05-07 11:13 47.25435 11.48462 3492 ft 135 kts 252°
2026-05-07 11:13 47.25149 11.47143 3492 ft 135 kts 252°
2026-05-07 11:14 47.24863 11.45823 3494 ft 135 kts 252°
2026-05-07 11:14 47.24576 11.44506 3473 ft 136 kts 252°
2026-05-07 11:14 47.24301 11.43233 3340 ft 125 kts 252°
2026-05-07 11:14 47.24053 11.42038 3193 ft 117 kts 259°
2026-05-07 11:15 47.24149 11.40912 3093 ft 111 kts 296°
2026-05-07 11:15 47.24650 11.40029 2877 ft 114 kts 320°
2026-05-07 11:15 47.25309 11.39510 2789 ft 107 kts 346°
2026-05-07 11:15 47.25997 11.39213 2743 ft 98 kts 332°
2026-05-07 11:16 47.26313 11.38375 2607 ft 99 kts 276°
2026-05-07 11:16 47.26317 11.37410 2372 ft 92 kts 271°
2026-05-07 11:16 47.26247 11.36535 2133 ft 83 kts 264°
2026-05-07 11:16 47.26161 11.35762 1934 ft 71 kts 266°
2026-05-07 11:17 47.26103 11.35155 1901 ft 50 kts 261°
2026-05-07 11:17 47.26062 11.34764 1901 ft 11 kts 262°
2026-05-07 11:17 47.26070 11.34767 1898 ft 4 kts 68°
2026-05-07 11:17 47.26090 11.34815 1898 ft 7 kts 37°
2026-05-07 11:18 47.26149 11.34832 1898 ft 11 kts
2026-05-07 11:18 47.26217 11.34795 1902 ft 13 kts 270°
2026-05-07 11:18 47.26208 11.34662 1898 ft 13 kts 265°
2026-05-07 11:18 47.26186 11.34600 1896 ft 6 kts 89°
2026-05-07 11:19 47.26188 11.34623 1895 ft 0 kts 84°
2026-05-07 11:22 0.01158 0.00001 53808 ft 0 kts